Home > Products > Valid Products > TAF

000
FTUS45 KLKN 020500
TAFTPH
TAF
KTPH 020526Z 0206/0306 VRB06KT P6SM SKC
     FM022100 20012G20KT P6SM SKC
     FM030300 18008KT P6SM SKC=



000
FTUS45 KLKN 020500
TAFWMC
TAF
KWMC 020526Z 0206/0306 VRB03KT P6SM SKC
     FM022100 25009KT P6SM SKC=



000
FTUS45 KLKN 020500
TAFEKO
TAF
KEKO 020526Z 0206/0306 VRB05KT P6SM SKC
     FM022100 24010KT P6SM SKC
     FM030300 VRB04KT P6SM SKC=



000
FTUS45 KLKN 020500
TAFTPH
TAF
KTPH 020526Z 0206/0306 VRB06KT P6SM SKC
     FM022100 20012G20KT P6SM SKC
     FM030300 18008KT P6SM SKC=



000
FTUS45 KLKN 020500
TAFELY
TAF
KELY 020526Z 0206/0306 17008KT P6SM SKC
     FM022100 20013G20KT P6SM SKC
     FM030300 18009KT P6SM SKC=



000
FTUS45 KLKN 012300
TAFTPH
TAF
KTPH 012320Z 0200/0224 25025KT P6SM SKC
     FM020400 36008KT P6SM SKC=



000
FTUS45 KLKN 012300
TAFELY
TAF
KELY 012320Z 0200/0224 28010KT P6SM SKC
     FM020300 18009KT P6SM SKC=



000
FTUS45 KLKN 012300
TAFEKO
TAF
KEKO 012320Z 0200/0224 VRB05KT P6SM SKC=



000
FTUS45 KLKN 012300
TAFWMC
TAF
KWMC 012320Z 0200/0224 VRB05KT P6SM SKC
     FM020200 35006KT P6SM SKC
     FM020500 VRB03KT P6SM SKC=



000
FTUS45 KLKN 012300
TAFEKO
TAF
KEKO 012320Z 0200/0224 VRB05KT P6SM SKC=



000
FTUS45 KLKN 012300
TAFWMC
TAF
KWMC 012320Z 0200/0224 VRB05KT P6SM SKC
     FM020200 35006KT P6SM SKC
     FM020500 VRB03KT P6SM SKC=



000
FTUS45 KLKN 012300
TAFTPH
TAF
KTPH 012320Z 0200/0224 25025KT P6SM SKC
     FM020400 36008KT P6SM SKC=



000
FTUS45 KLKN 012300
TAFELY
TAF
KELY 012320Z 0200/0224 28010KT P6SM SKC
     FM020300 18009KT P6SM SKC=



000
FTUS45 KLKN 011700
TAFTPH
TAF
KTPH 011720Z 0118/0218 31005KT P6SM SKC
     FM020400 36008KT P6SM SKC=



000
FTUS45 KLKN 011700
TAFELY
TAF
KELY 011720Z 0118/0218 VRB05KT P6SM SKC
     FM020300 18009KT P6SM SKC=



000
FTUS45 KLKN 011700
TAFWMC
TAF
KWMC 011720Z 0118/0218 VRB05KT P6SM SKC
     FM012100 35007KT P6SM SKC
     FM020200 VRB03KT P6SM SKC=



000
FTUS45 KLKN 011700
TAFEKO
TAF
KEKO 011720Z 0118/0218 VRB05KT P6SM SKC=



000
FTUS45 KLKN 011100
TAFWMC
TAF
KWMC 011137Z 0112/0212 VRB05KT P6SM SKC
     FM012100 35007KT P6SM SKC
     FM020200 VRB03KT P6SM SKC=



000
FTUS45 KLKN 011100
TAFTPH
TAF
KTPH 011137Z 0112/0212 35010KT P6SM SKC
     FM011800 31007KT P6SM SKC
     FM020400 36008KT P6SM SKC=



000
FTUS45 KLKN 011100
TAFELY
TAF
KELY 011137Z 0112/0212 19008KT P6SM SKC
     FM011800 34008KT P6SM SKC
     FM020300 18009KT P6SM SKC=



000
FTUS45 KLKN 011100
TAFEKO
TAF
KEKO 011137Z 0112/0212 VRB06KT P6SM SKC=



000
FTUS45 KLKN 011100
TAFWMC
TAF
KWMC 011137Z 0112/0212 VRB05KT P6SM SKC
     FM012100 35007KT P6SM SKC
     FM020200 VRB03KT P6SM SKC=



000
FTUS45 KLKN 011100
TAFTPH
TAF
KTPH 011137Z 0112/0212 35010KT P6SM SKC
     FM011800 31007KT P6SM SKC
     FM020400 36008KT P6SM SKC=



000
FTUS45 KLKN 011100
TAFELY
TAF
KELY 011137Z 0112/0212 19008KT P6SM SKC
     FM011800 34008KT P6SM SKC
     FM020300 18009KT P6SM SKC=



000
FTUS45 KLKN 011100
TAFEKO
TAF
KEKO 011137Z 0112/0212 VRB06KT P6SM SKC=



000
FTUS45 KLKN 010500
TAFTPH
TAF
KTPH 010520Z 0106/0206 35010KT P6SM SKC
     FM011800 29007KT P6SM SKC
     FM020300 22007KT P6SM SKC=



000
FTUS45 KLKN 010500
TAFEKO
TAF
KEKO 010520Z 0106/0206 VRB06KT P6SM SKC=



000
FTUS45 KLKN 010500
TAFTPH
TAF
KTPH 010520Z 0106/0206 35010KT P6SM SKC
     FM011800 29007KT P6SM SKC
     FM020300 22007KT P6SM SKC=



000
FTUS45 KLKN 010500
TAFWMC
TAF
KWMC 010520Z 0106/0206 VRB05KT P6SM SKC
     FM012100 34007KT P6SM SKC=



000
FTUS45 KLKN 010500
TAFELY
TAF
KELY 010520Z 0106/0206 19008KT P6SM SKC
     FM011800 34008KT P6SM SKC
     FM020300 20005KT P6SM SKC=



000
FTUS45 KLKN 010500
TAFELY
TAF
KELY 010520Z 0106/0206 19008KT P6SM SKC
     FM011800 34008KT P6SM SKC
     FM020300 20005KT P6SM SKC=



000
FTUS45 KLKN 010500
TAFEKO
TAF
KEKO 010520Z 0106/0206 VRB06KT P6SM SKC=



000
FTUS45 KLKN 010500
TAFWMC
TAF
KWMC 010520Z 0106/0206 VRB05KT P6SM SKC
     FM012100 34007KT P6SM SKC=



000
FTUS45 KLKN 312300
TAFEKO
TAF
KEKO 312320Z 0100/0124 27012G22KT P6SM SCT100
     FM010400 VRB05KT P6SM SKC=



000
FTUS45 KLKN 312300
TAFELY
TAF
KELY 312320Z 0100/0124 31010G20KT P6SM SKC
     FM010500 19008KT P6SM SKC=



000
FTUS45 KLKN 312300
TAFELY
TAF
KELY 312320Z 0100/0124 31010G20KT P6SM SKC
     FM010500 19008KT P6SM SKC=



000
FTUS45 KLKN 312300
TAFTPH
TAF
KTPH 312320Z 0100/0124 30010G20KT P6SM SKC
     FM010300 35010KT P6SM SKC=



000
FTUS45 KLKN 312300
TAFWMC
TAF
KWMC 312320Z 0100/0124 30010G20KT P6SM SCT100
     FM010400 33010KT P6SM SKC=



000
FTUS45 KLKN 312300
TAFEKO
TAF
KEKO 312320Z 0100/0124 27012G22KT P6SM SCT100
     FM010400 VRB05KT P6SM SKC=



000
FTUS45 KLKN 312300
TAFWMC
TAF
KWMC 312320Z 0100/0124 30010G20KT P6SM SCT100
     FM010400 33010KT P6SM SKC=



000
FTUS45 KLKN 312300
TAFTPH
TAF
KTPH 312320Z 0100/0124 30010G20KT P6SM SKC
     FM010300 35010KT P6SM SKC=



000
FTUS45 KLKN 311700
TAFTPH
TAF
KTPH 311720Z 3118/0118 34008KT P6SM SKC
     FM312100 31010G20KT P6SM SKC
     FM010300 35010KT P6SM SKC=



000
FTUS45 KLKN 311700
TAFELY
TAF
KELY 311720Z 3118/0118 27007KT P6SM SKC
     FM312000 28010G20KT P6SM SKC
     FM010500 19008KT P6SM SKC=



000
FTUS45 KLKN 311700
TAFTPH
TAF
KTPH 311720Z 3118/0118 34008KT P6SM SKC
     FM312100 31010G20KT P6SM SKC
     FM010300 35010KT P6SM SKC=



000
FTUS45 KLKN 311700
TAFELY
TAF
KELY 311720Z 3118/0118 27007KT P6SM SKC
     FM312000 28010G20KT P6SM SKC
     FM010500 19008KT P6SM SKC=



000
FTUS45 KLKN 311700
TAFWMC
TAF
KWMC 311720Z 3118/0118 34008KT P6SM SKC
     FM312000 28010G20KT P6SM SCT100
     FM010200 33010KT P6SM SKC=



000
FTUS45 KLKN 311700
TAFEKO
TAF
KEKO 311720Z 3118/0118 VRB05KT P6SM FEW100
     FM311900 28011G21KT P6SM SCT100
     FM010200 VRB05KT P6SM SKC=



000
FTUS45 KLKN 311700
TAFEKO
TAF
KEKO 311720Z 3118/0118 VRB05KT P6SM FEW100
     FM311900 28011G21KT P6SM SCT100
     FM010200 VRB05KT P6SM SKC=



000
FTUS45 KLKN 311700
TAFWMC
TAF
KWMC 311720Z 3118/0118 34008KT P6SM SKC
     FM312000 28010G20KT P6SM SCT100
     FM010200 33010KT P6SM SKC=



000
FTUS45 KLKN 311100
TAFWMC
TAF
KWMC 311120Z 3112/0112 34008KT P6SM SKC
     FM312000 28010G20KT P6SM SCT100
     FM010200 33010KT P6SM SKC=



000
FTUS45 KLKN 311100
TAFEKO
TAF
KEKO 311120Z 3112/0112 VRB05KT P6SM FEW100
     FM311900 28011G21KT P6SM SCT100
     FM010200 VRB05KT P6SM SKC=



000
FTUS45 KLKN 311100
TAFTPH
TAF
KTPH 311120Z 3112/0112 35012KT P6SM SKC
     FM311600 34005KT P6SM SKC
     FM312100 31010G20KT P6SM SKC
     FM010300 35010KT P6SM SKC=



000
FTUS45 KLKN 311100
TAFEKO
TAF
KEKO 311120Z 3112/0112 VRB05KT P6SM FEW100
     FM311900 28011G21KT P6SM SCT100
     FM010200 VRB05KT P6SM SKC=



000
FTUS45 KLKN 311100
TAFELY
TAF
KELY 311120Z 3112/0112 27007KT P6SM SKC
     FM312000 28010G20KT P6SM SKC
     FM010500 19008KT P6SM SKC=



000
FTUS45 KLKN 311100
TAFWMC
TAF
KWMC 311120Z 3112/0112 34008KT P6SM SKC
     FM312000 28010G20KT P6SM SCT100
     FM010200 33010KT P6SM SKC=



000
FTUS45 KLKN 311100
TAFTPH
TAF
KTPH 311120Z 3112/0112 35012KT P6SM SKC
     FM311600 34005KT P6SM SKC
     FM312100 31010G20KT P6SM SKC
     FM010300 35010KT P6SM SKC=



000
FTUS45 KLKN 310700 AAA
TAFTPH
TAF AMD
KTPH 310713Z 3107/0106 35012KT P6SM SKC
     FM311600 34005KT P6SM SKC
     FM312100 31010G20KT P6SM SKC
     FM010300 33010KT P6SM SKC=



000
FTUS45 KLKN 310500
TAFTPH
TAF
KTPH 310520Z 3106/0106 35012G25KT P6SM SKC
     FM311200 35009KT P6SM SKC
     FM311600 34005KT P6SM SKC
     FM312100 31010G20KT P6SM SKC
     FM010300 33010KT P6SM SKC=



000
FTUS45 KLKN 310500
TAFTPH
TAF
KTPH 310520Z 3106/0106 35012G25KT P6SM SKC
     FM311200 35009KT P6SM SKC
     FM311600 34005KT P6SM SKC
     FM312100 31010G20KT P6SM SKC
     FM010300 33010KT P6SM SKC=



000
FTUS45 KLKN 310500
TAFELY
TAF
KELY 310520Z 3106/0106 22008KT P6SM BKN150
     FM310900 20009KT P6SM SCT150
     FM312000 28010G20KT P6SM SKC
     FM010300 32006KT P6SM SKC=



000
FTUS45 KLKN 310500
TAFWMC
TAF
KWMC 310520Z 3106/0106 34008KT P6SM SCT120
      TEMPO 3106/3110 4SM HZ FU
     FM312000 28010G20KT P6SM SCT100
     FM010200 33008KT P6SM SKC=



000
FTUS45 KLKN 310500
TAFEKO
TAF
KEKO 310520Z 3106/0106 VRB05KT P6SM SCT150
     FM311900 28011G21KT P6SM SCT100
     FM010200 VRB05KT P6SM SKC=



000
FTUS45 KLKN 310500
TAFELY
TAF
KELY 310520Z 3106/0106 22008KT P6SM BKN150
     FM310900 20009KT P6SM SCT150
     FM312000 28010G20KT P6SM SKC
     FM010300 32006KT P6SM SKC=



000
FTUS45 KLKN 310500
TAFWMC
TAF
KWMC 310520Z 3106/0106 34008KT P6SM SCT120
      TEMPO 3106/3110 4SM HZ FU
     FM312000 28010G20KT P6SM SCT100
     FM010200 33008KT P6SM SKC=



000
FTUS45 KLKN 310500
TAFEKO
TAF
KEKO 310520Z 3106/0106 VRB05KT P6SM SCT150
     FM311900 28011G21KT P6SM SCT100
     FM010200 VRB05KT P6SM SKC=



000
FTUS45 KLKN 310400 AAB
TAFTPH
TAF AMD
KTPH 310410Z 3104/3124 35012G22KT P6SM SKC
     FM310800 34012KT P6SM SKC
     FM311600 34005KT P6SM SKC
     FM312100 31010G20KT P6SM SKC=



000
FTUS45 KLKN 310400 AAB
TAFTPH
TAF AMD
KTPH 310410Z 3104/3124 35012G22KT P6SM SKC
     FM310800 34012KT P6SM SKC
     FM311600 34005KT P6SM SKC
     FM312100 31010G20KT P6SM SKC=



000
FTUS45 KLKN 310400 AAB
TAFTPH
TAF AMD
KTPH 310410Z 3104/3124 35012G22KT P6SM SKC
     FM310800 34012KT P6SM SKC
     FM311600 34005KT P6SM SKC
     FM312100 31010G20KT P6SM SKC=



000
FTUS45 KLKN 310400 AAB
TAFTPH
TAF AMD
KTPH 310410Z 3104/3124 35012G22KT P6SM SKC
     FM310800 34012KT P6SM SKC
     FM311600 34005KT P6SM SKC
     FM312100 31010G20KT P6SM SKC=



000
FTUS45 KLKN 310100 AAA
TAFTPH
TAF AMD
KTPH 310117Z 3101/3124 30016G26KT P6SM SCT150
     FM310500 34012KT P6SM SKC
     FM311600 34005KT P6SM SKC
     FM312100 31010G20KT P6SM SKC=



000
FTUS45 KLKN 310100 AAA
TAFTPH
TAF AMD
KTPH 310117Z 3101/3124 30016G26KT P6SM SCT150
     FM310500 34012KT P6SM SKC
     FM311600 34005KT P6SM SKC
     FM312100 31010G20KT P6SM SKC=



000
FTUS45 KLKN 310100 AAA
TAFELY
TAF AMD
KELY 310116Z 3101/3124 27015G25KT P6SM SCT120 BKN150
     FM310300 22010KT P6SM BKN150
     FM310900 20009KT P6SM SCT150
     FM312000 28010G20KT P6SM SKC=



000
FTUS45 KLKN 310100 AAA
TAFELY
TAF AMD
KELY 310116Z 3101/3124 27015G25KT P6SM SCT120 BKN150
     FM310300 22010KT P6SM BKN150
     FM310900 20009KT P6SM SCT150
     FM312000 28010G20KT P6SM SKC=



000
FTUS45 KLKN 302300
TAFTPH
TAF
KTPH 302337Z 3100/3124 26015G25KT P6SM FEW120
     FM310500 34010KT P6SM SKC
     FM312100 31010G20KT P6SM SKC=



000
FTUS45 KLKN 302300
TAFEKO
TAF
KEKO 302337Z 3100/3124 27010G20KT P6SM FEW110 SCT150
     FM310300 VRB06KT P6SM FEW100
     FM311800 27010G20KT P6SM FEW080 SCT100=



000
FTUS45 KLKN 302300
TAFELY
TAF
KELY 302337Z 3100/3124 24010G20KT P6SM SCT120 BKN140
     FM310300 22009KT P6SM SCT130 BKN150
     FM310900 19009KT P6SM SCT150
     FM312000 28010G20KT P6SM SKC=



000
FTUS45 KLKN 302300
TAFWMC
TAF
KWMC 302337Z 3100/3124 28011G21KT P6SM FEW080 SCT120 BKN150
     FM310600 30008KT P6SM FEW080 SCT120
     FM311800 28010G20KT P6SM SCT080=



000
FTUS45 KLKN 302300
TAFTPH
TAF
KTPH 302337Z 3100/3124 26015G25KT P6SM FEW120
     FM310500 34010KT P6SM SKC
     FM312100 31010G20KT P6SM SKC=



000
FTUS45 KLKN 302300
TAFELY
TAF
KELY 302337Z 3100/3124 24010G20KT P6SM SCT120 BKN140
     FM310300 22009KT P6SM SCT130 BKN150
     FM310900 19009KT P6SM SCT150
     FM312000 28010G20KT P6SM SKC=



000
FTUS45 KLKN 302300
TAFWMC
TAF
KWMC 302337Z 3100/3124 28011G21KT P6SM FEW080 SCT120 BKN150
     FM310600 30008KT P6SM FEW080 SCT120
     FM311800 28010G20KT P6SM SCT080=



000
FTUS45 KLKN 302300
TAFEKO
TAF
KEKO 302337Z 3100/3124 27010G20KT P6SM FEW110 SCT150
     FM310300 VRB06KT P6SM FEW100
     FM311800 27010G20KT P6SM FEW080 SCT100=



000
FTUS45 KLKN 302100 AAA
TAFELY
TAF AMD
KELY 302107Z 3021/3118 21011G22KT P6SM SCT120 BKN140
     FM310300 22009KT P6SM SCT130 BKN150
     FM310900 19009KT P6SM SCT150=



000
FTUS45 KLKN 302100 AAA
TAFELY
TAF AMD
KELY 302107Z 3021/3118 21011G22KT P6SM SCT120 BKN140
     FM310300 22009KT P6SM SCT130 BKN150
     FM310900 19009KT P6SM SCT150=



000
FTUS45 KLKN 301900 AAA
TAFEKO
TAF AMD
KEKO 301912Z 3019/3118 23015G28KT P6SM FEW100 SCT150
     FM310300 VRB06KT P6SM FEW070 SCT100=



000
FTUS45 KLKN 301900 AAA
TAFWMC
TAF AMD
KWMC 301910Z 3019/3118 25011G21KT P6SM FEW080 SCT120 BKN200
     FM310600 30008KT P6SM SCT200=



000
FTUS45 KLKN 301900 AAA
TAFWMC
TAF AMD
KWMC 301910Z 3019/3118 25011G21KT P6SM FEW080 SCT120 BKN200
     FM310600 30008KT P6SM SCT200=



000
FTUS45 KLKN 301700
TAFTPH
TAF
KTPH 301734Z 3018/3118 VRB06KT P6SM SKC
     FM302100 27010G20KT P6SM SKC
     FM302200 31015G25KT P6SM FEW130
     FM310500 34010KT P6SM SKC=



000
FTUS45 KLKN 301700
TAFEKO
TAF
KEKO 301734Z 3018/3118 21006KT P6SM SKC
     FM302100 26015G30KT P6SM FEW100 SCT150
     FM310300 VRB06KT P6SM FEW070 SCT100=



000
FTUS45 KLKN 301700
TAFWMC
TAF
KWMC 301734Z 3018/3118 28006KT P6SM SKC
     FM302100 28011G21KT P6SM FEW080 SCT120 BKN200
     FM310600 30008KT P6SM SCT200=



000
FTUS45 KLKN 301700
TAFELY
TAF
KELY 301734Z 3018/3118 VRB06KT P6SM BKN120
     FM302100 24010G20KT P6SM SCT120 BKN140
     FM310300 22009KT P6SM SCT130 BKN150
     FM310900 19009KT P6SM SCT150=



000
FTUS45 KLKN 301100
TAFTPH
TAF
KTPH 301134Z 3012/3112 17007KT P6SM BKN200
     FM301800 31018G30KT P6SM OVC200
     FM310900 34014G25KT P6SM SCT200=



000
FTUS45 KLKN 301100
TAFEKO
TAF
KEKO 301134Z 3012/3112 VRB04KT P6SM BKN200
     FM301800 24015G25KT P6SM SCT100 BKN200
     FM310300 28008KT P6SM OVC200
     FM310900 24007KT P6SM BKN200=



000
FTUS45 KLKN 301100
TAFTPH
TAF
KTPH 301134Z 3012/3112 17007KT P6SM BKN200
     FM301800 31018G30KT P6SM OVC200
     FM310900 34014G25KT P6SM SCT200=



000
FTUS45 KLKN 301100
TAFELY
TAF
KELY 301134Z 3012/3112 18008KT P6SM BKN200
     FM301800 24017G30KT P6SM SCT200
     FM310300 21012G22KT P6SM BKN200
     FM310900 19010KT P6SM SCT200=



000
FTUS45 KLKN 301100
TAFWMC
TAF
KWMC 301134Z 3012/3112 22007KT P6SM SKC
     FM302100 28015G25KT P6SM SCT100 BKN200
     FM310300 30010G16KT P6SM OVC200
     FM310900 29008KT P6SM BKN200=



000
FTUS45 KLKN 301100
TAFEKO
TAF
KEKO 301134Z 3012/3112 VRB04KT P6SM BKN200
     FM301800 24015G25KT P6SM SCT100 BKN200
     FM310300 28008KT P6SM OVC200
     FM310900 24007KT P6SM BKN200=



000
FTUS45 KLKN 301100
TAFWMC
TAF
KWMC 301134Z 3012/3112 22007KT P6SM SKC
     FM302100 28015G25KT P6SM SCT100 BKN200
     FM310300 30010G16KT P6SM OVC200
     FM310900 29008KT P6SM BKN200=



000
FTUS45 KLKN 301100
TAFELY
TAF
KELY 301134Z 3012/3112 18008KT P6SM BKN200
     FM301800 24017G30KT P6SM SCT200
     FM310300 21012G22KT P6SM BKN200
     FM310900 19010KT P6SM SCT200=



    US Dept of Commerce
    National Oceanic and Atmospheric Administration
    National Weather Service
    1325 East West Highway
    Silver Spring, MD 20910
    Page Author: NWS Internet Services Team
Disclaimer
Information Quality
Credits
Glossary
Privacy Policy
Freedom of Information Act (FOIA)
About Us
Career Opportunities